Time;durP1;ratioP1;P1;durP2;ratioP2;P2;SDS_P1;SDS_P2;PMS_P1;PMS_P2;Temp;Humidity;BMP_temperature;BMP_pressure;BME280_temperature;BME280_humidity;BME280_pressure;Samples;Min_cycle;Max_cycle;Signal;HPM_P1;HPM_P2
2023/06/06 00:01:41;;;;;;;12.68;7.00;;;15.30;87.50;;;;;;4954200;28;88563;-74
2023/06/06 00:04:07;;;;;;;12.60;7.28;;;15.20;87.00;;;;;;4971836;28;87401;-75
2023/06/06 00:06:33;;;;;;;13.40;7.15;;;15.20;88.10;;;;;;4960595;28;90557;-75
2023/06/06 00:08:59;;;;;;;10.77;6.60;;;15.10;87.40;;;;;;4970847;28;88149;-75
2023/06/06 00:11:28;;;;;;;15.90;7.40;;;15.10;87.20;;;;;;4964753;28;87310;-75
2023/06/06 00:13:54;;;;;;;9.18;6.32;;;15.10;87.70;;;;;;4952363;28;87512;-75
2023/06/06 00:16:20;;;;;;;13.45;7.38;;;15.10;87.30;;;;;;4952630;28;87861;-75
2023/06/06 00:18:45;;;;;;;13.27;7.60;;;15.00;88.40;;;;;;4950247;28;88888;-75
2023/06/06 00:21:12;;;;;;;12.68;6.88;;;15.00;89.20;;;;;;4965342;28;88973;-75
2023/06/06 00:23:38;;;;;;;14.38;7.80;;;15.00;89.20;;;;;;4971294;28;87482;-75
2023/06/06 00:26:04;;;;;;;15.90;7.65;;;14.90;88.80;;;;;;4965788;28;87770;-75
2023/06/06 00:28:30;;;;;;;15.43;7.57;;;14.80;89.20;;;;;;4952125;28;87730;-75
2023/06/06 00:30:55;;;;;;;14.90;8.20;;;14.80;90.10;;;;;;4952131;28;88412;-75
2023/06/06 00:33:21;;;;;;;15.57;8.25;;;14.70;89.60;;;;;;4951370;28;87792;-75
2023/06/06 00:35:46;;;;;;;11.20;6.93;;;14.70;90.10;;;;;;4962866;28;87401;-74
2023/06/06 00:38:12;;;;;;;12.93;7.80;;;14.70;89.30;;;;;;4970782;28;87711;-75
2023/06/06 00:40:37;;;;;;;13.30;7.65;;;14.70;89.30;;;;;;4968814;28;88457;-75
2023/06/06 00:43:03;;;;;;;12.50;8.40;;;14.60;90.10;;;;;;4952925;28;88561;-75
2023/06/06 00:45:29;;;;;;;14.68;8.18;;;14.60;90.30;;;;;;4969271;28;87507;-73
2023/06/06 00:47:55;;;;;;;13.25;8.48;;;14.50;90.60;;;;;;4971811;28;89279;-74
2023/06/06 00:50:23;;;;;;;14.52;8.27;;;14.50;90.60;;;;;;4972232;28;87858;-74
2023/06/06 00:52:50;;;;;;;13.32;8.27;;;14.50;90.20;;;;;;4971486;28;88174;-75
2023/06/06 00:55:17;;;;;;;17.88;8.43;;;14.50;90.30;;;;;;4976510;28;87736;-74
2023/06/06 00:57:44;;;;;;;14.77;8.63;;;14.40;90.40;;;;;;4969988;28;87791;-75
2023/06/06 01:00:11;;;;;;;17.70;8.98;;;14.40;90.60;;;;;;4970051;28;87980;-75
2023/06/06 01:02:39;;;;;;;15.30;9.15;;;14.40;90.80;;;;;;4970092;28;87380;-75
2023/06/06 01:05:06;;;;;;;16.67;7.70;;;14.30;91.10;;;;;;4965185;28;87583;-75
2023/06/06 01:07:33;;;;;;;13.68;7.88;;;14.30;90.40;;;;;;4950615;28;89810;-75
2023/06/06 01:09:59;;;;;;;11.63;7.35;;;14.30;90.40;;;;;;4962516;28;91166;-74
2023/06/06 01:12:48;;;;;;;12.43;8.27;;;14.20;90.80;;;;;;4969761;28;87904;-75
2023/06/06 01:15:35;;;;;;;13.32;8.57;;;14.20;91.40;;;;;;4970408;28;87584;-75
2023/06/06 01:18:03;;;;;;;16.45;8.77;;;14.20;90.70;;;;;;4970427;28;88674;-75
2023/06/06 01:20:30;;;;;;;13.93;8.38;;;14.10;91.40;;;;;;4961846;28;89709;-75
2023/06/06 01:22:57;;;;;;;16.30;9.50;;;14.10;91.60;;;;;;4954002;28;87686;-74
2023/06/06 01:25:23;;;;;;;15.20;9.23;;;14.00;91.40;;;;;;4970208;28;87555;-75
2023/06/06 01:27:53;;;;;;;18.48;8.48;;;14.00;91.60;;;;;;4968975;28;88667;-75
2023/06/06 01:30:23;;;;;;;17.08;9.15;;;14.00;91.40;;;;;;4969282;28;88079;-75
2023/06/06 01:33:10;;;;;;;16.33;9.63;;;14.00;91.40;;;;;;4968514;28;88604;-75
2023/06/06 01:36:00;;;;;;;18.65;9.38;;;14.00;91.80;;;;;;4968578;28;88056;-75
2023/06/06 01:38:30;;;;;;;13.68;8.20;;;13.90;91.70;;;;;;4969007;28;88059;-75
2023/06/06 01:40:58;;;;;;;16.00;9.68;;;13.90;91.60;;;;;;4969093;28;87584;-75
2023/06/06 01:43:26;;;;;;;17.88;9.95;;;13.90;91.70;;;;;;4969791;28;87855;-75
2023/06/06 01:45:53;;;;;;;19.02;9.95;;;13.90;91.50;;;;;;4970739;28;91496;-75
2023/06/06 01:48:19;;;;;;;16.73;9.40;;;13.80;91.60;;;;;;4969148;28;88732;-75
2023/06/06 01:50:46;;;;;;;13.93;9.00;;;13.80;91.60;;;;;;4959975;28;88429;-75
2023/06/06 01:53:11;;;;;;;15.48;9.57;;;13.80;91.80;;;;;;4957284;28;87856;-75
2023/06/06 01:55:38;;;;;;;15.35;9.05;;;13.80;91.70;;;;;;4968988;28;87569;-74
2023/06/06 01:58:05;;;;;;;18.95;9.77;;;13.80;91.70;;;;;;4969228;28;88697;-75
2023/06/06 02:00:31;;;;;;;17.13;9.55;;;13.70;91.60;;;;;;4952448;28;88848;-75
2023/06/06 02:02:57;;;;;;;17.40;9.65;;;13.70;92.10;;;;;;4949451;28;87816;-74
2023/06/06 02:05:22;;;;;;;17.55;9.65;;;13.70;92.00;;;;;;4957225;28;87986;-76
2023/06/06 02:07:49;;;;;;;15.90;8.73;;;13.70;92.00;;;;;;4969920;28;88217;-75
2023/06/06 02:10:15;;;;;;;16.13;9.93;;;13.60;91.50;;;;;;4970803;28;87534;-75
2023/06/06 02:12:41;;;;;;;15.35;9.23;;;13.60;92.10;;;;;;4956990;28;87591;-75
2023/06/06 02:15:09;;;;;;;18.58;9.70;;;13.60;92.00;;;;;;4967588;28;87021;-75
2023/06/06 02:17:35;;;;;;;16.20;9.65;;;13.60;92.20;;;;;;4964987;28;88027;-75
2023/06/06 02:20:01;;;;;;;20.63;10.77;;;13.60;92.30;;;;;;4955626;28;89432;-75
2023/06/06 02:22:26;;;;;;;17.58;10.07;;;13.50;92.00;;;;;;4972872;28;88663;-74
2023/06/06 02:24:52;;;;;;;22.40;10.50;;;13.50;92.20;;;;;;4972815;28;88192;-76
2023/06/06 02:27:19;;;;;;;17.88;9.82;;;13.50;92.30;;;;;;4969358;28;88312;-76
2023/06/06 02:29:45;;;;;;;20.65;10.43;;;13.40;92.40;;;;;;4971552;28;88197;-74
2023/06/06 02:32:11;;;;;;;16.20;9.50;;;13.40;92.40;;;;;;4962516;28;87831;-75
2023/06/06 02:34:37;;;;;;;18.38;10.73;;;13.40;92.20;;;;;;4970413;28;87776;-75
2023/06/06 02:37:06;;;;;;;16.98;10.15;;;13.40;92.40;;;;;;4951686;28;87186;-74
2023/06/06 02:39:33;;;;;;;15.23;9.57;;;13.30;92.30;;;;;;4967337;28;88389;-74
2023/06/06 02:41:59;;;;;;;18.80;10.50;;;13.30;92.30;;;;;;4958133;28;87482;-75
2023/06/06 02:44:26;;;;;;;18.17;10.20;;;13.30;92.70;;;;;;4951624;28;87876;-75
2023/06/06 02:46:52;;;;;;;18.00;10.32;;;13.20;92.70;;;;;;4955268;28;89203;-75
2023/06/06 02:49:18;;;;;;;18.88;10.95;;;13.20;92.20;;;;;;4972235;28;89341;-74
2023/06/06 02:51:43;;;;;;;17.98;10.30;;;13.20;92.50;;;;;;4953575;28;87458;-75
2023/06/06 02:54:09;;;;;;;18.73;10.40;;;13.20;92.60;;;;;;4966147;28;87595;-75
2023/06/06 02:56:35;;;;;;;20.33;11.40;;;13.20;92.50;;;;;;4960895;28;91953;-74
2023/06/06 02:59:00;;;;;;;17.55;9.77;;;13.10;92.70;;;;;;4956567;28;87558;-75
2023/06/06 03:01:26;;;;;;;19.25;10.63;;;13.10;92.80;;;;;;4964737;28;87206;-75
2023/06/06 03:03:52;;;;;;;19.88;10.77;;;13.10;92.50;;;;;;4972021;28;90353;-74
2023/06/06 03:06:20;;;;;;;15.82;9.63;;;13.10;92.70;;;;;;4971572;28;88064;-74
2023/06/06 03:08:46;;;;;;;28.75;11.45;;;13.00;92.40;;;;;;4961631;28;88625;-74
2023/06/06 03:11:12;;;;;;;21.35;10.65;;;13.00;92.90;;;;;;4958195;28;88351;-75
2023/06/06 03:13:38;;;;;;;23.58;11.75;;;13.00;92.80;;;;;;4971359;28;87456;-75
2023/06/06 03:16:04;;;;;;;20.17;11.70;;;13.00;92.90;;;;;;4972468;28;88238;-75
2023/06/06 03:18:31;;;;;;;18.92;9.95;;;13.00;92.90;;;;;;4972827;28;88474;-75
2023/06/06 03:20:57;;;;;;;17.95;11.13;;;12.90;92.60;;;;;;4974294;28;87984;-75
2023/06/06 03:23:23;;;;;;;19.63;11.60;;;12.90;92.90;;;;;;4964584;28;87535;-74
2023/06/06 03:25:49;;;;;;;22.35;10.93;;;12.90;93.10;;;;;;4951648;28;88359;-75
2023/06/06 03:28:18;;;;;;;25.38;11.85;;;12.80;92.90;;;;;;4953371;28;89125;-75
2023/06/06 03:30:48;;;;;;;20.85;11.25;;;12.80;93.20;;;;;;4971124;28;87802;-75
2023/06/06 03:33:14;;;;;;;21.80;11.00;;;12.80;93.10;;;;;;4971403;28;87799;-75
2023/06/06 03:35:40;;;;;;;19.70;10.48;;;12.80;93.30;;;;;;4960473;28;89122;-75
2023/06/06 03:38:06;;;;;;;20.42;11.00;;;12.80;93.30;;;;;;4951296;28;88372;-75
2023/06/06 03:40:31;;;;;;;23.98;12.18;;;12.80;93.10;;;;;;4952826;28;87621;-75
2023/06/06 03:42:57;;;;;;;19.73;10.65;;;12.70;93.10;;;;;;4972572;28;87717;-74
2023/06/06 03:45:23;;;;;;;21.27;11.95;;;12.70;93.50;;;;;;4972257;28;87527;-74
2023/06/06 03:47:50;;;;;;;22.73;12.40;;;12.70;93.40;;;;;;4957643;28;89393;-75
2023/06/06 03:50:16;;;;;;;25.10;12.10;;;12.60;93.30;;;;;;4955011;28;87622;-75
2023/06/06 03:52:42;;;;;;;22.17;12.50;;;12.70;93.30;;;;;;4962032;28;86782;-75
2023/06/06 03:55:09;;;;;;;21.65;11.63;;;12.60;93.40;;;;;;4982823;28;89177;-75
2023/06/06 03:57:36;;;;;;;25.80;12.02;;;12.60;93.60;;;;;;4955233;28;88486;-75
2023/06/06 04:00:22;;;;;;;21.20;11.50;;;12.60;93.30;;;;;;4952906;28;88661;-75
2023/06/06 04:02:48;;;;;;;26.73;11.60;;;12.60;93.30;;;;;;4953096;28;87743;-74
2023/06/06 04:05:15;;;;;;;23.83;11.77;;;12.60;93.30;;;;;;4954389;28;88126;-75
2023/06/06 04:07:41;;;;;;;20.42;11.80;;;12.60;93.30;;;;;;4958266;28;87665;-75
2023/06/06 04:10:07;;;;;;;20.77;12.07;;;12.60;93.40;;;;;;4976798;28;87650;-74
2023/06/06 04:12:32;;;;;;;26.70;12.60;;;12.60;93.60;;;;;;4961623;28;87567;-75
2023/06/06 04:14:58;;;;;;;21.35;11.95;;;12.60;93.60;;;;;;4964717;28;90117;-75
2023/06/06 04:17:24;;;;;;;30.75;13.88;;;12.60;93.30;;;;;;4971993;28;87416;-75
2023/06/06 04:19:50;;;;;;;21.02;12.30;;;12.60;93.40;;;;;;4965056;28;87081;-73
2023/06/06 04:22:17;;;;;;;18.20;11.52;;;12.70;93.30;;;;;;4981234;28;87484;-75
2023/06/06 04:24:43;;;;;;;24.27;11.43;;;12.70;93.10;;;;;;4965122;28;88559;-75
2023/06/06 04:27:09;;;;;;;20.98;11.07;;;12.70;93.10;;;;;;4971922;28;88597;-75
2023/06/06 04:29:40;;;;;;;17.40;11.25;;;12.70;93.10;;;;;;4979006;28;87465;-75
2023/06/06 04:32:08;;;;;;;26.60;11.68;;;12.80;93.10;;;;;;4977813;28;90113;-75
2023/06/06 04:34:39;;;;;;;22.25;11.30;;;12.80;92.90;;;;;;4974529;28;89136;-75
2023/06/06 04:37:05;;;;;;;30.90;13.52;;;12.80;92.90;;;;;;4973486;28;88181;-75
2023/06/06 04:39:32;;;;;;;22.38;12.73;;;12.80;93.10;;;;;;4973113;28;90183;-75
2023/06/06 04:41:59;;;;;;;23.80;11.93;;;12.80;92.90;;;;;;4969879;28;87040;-74
2023/06/06 04:44:27;;;;;;;25.08;12.13;;;12.90;92.90;;;;;;4970801;28;88368;-75
2023/06/06 04:47:00;;;;;;;23.50;12.25;;;12.90;92.90;;;;;;4968620;28;87619;-74
2023/06/06 04:49:26;;;;;;;20.85;13.10;;;12.90;92.70;;;;;;4955312;28;88515;-74
2023/06/06 04:51:53;;;;;;;24.02;12.55;;;12.90;92.90;;;;;;4961203;28;91944;-74
2023/06/06 04:54:19;;;;;;;25.88;13.32;;;12.90;92.80;;;;;;4956531;28;88632;-75
2023/06/06 04:56:46;;;;;;;17.98;12.20;;;13.00;92.60;;;;;;4951964;28;88516;-75
2023/06/06 04:59:12;;;;;;;22.05;13.10;;;13.00;92.50;;;;;;4958408;28;87933;-75
2023/06/06 05:01:41;;;;;;;22.17;12.25;;;13.10;92.40;;;;;;4971418;28;87751;-75
2023/06/06 05:04:07;;;;;;;24.10;12.50;;;13.10;92.40;;;;;;4972594;28;88518;-75
2023/06/06 05:06:34;;;;;;;21.42;12.50;;;13.20;92.50;;;;;;4970391;28;90027;-74
2023/06/06 05:09:03;;;;;;;25.48;12.75;;;13.20;92.50;;;;;;4970727;28;87567;-74
2023/06/06 05:11:29;;;;;;;26.00;13.32;;;13.20;92.30;;;;;;4972044;28;87904;-75
2023/06/06 05:13:54;;;;;;;23.67;12.77;;;13.20;92.00;;;;;;4968835;28;88797;-75
2023/06/06 05:16:21;;;;;;;22.23;12.10;;;13.20;92.00;;;;;;4953160;28;88870;-75
2023/06/06 05:18:46;;;;;;;26.27;13.02;;;13.30;92.10;;;;;;4951550;28;89086;-75
2023/06/06 05:21:14;;;;;;;21.42;12.60;;;13.30;91.90;;;;;;4966913;28;87649;-74
2023/06/06 05:23:40;;;;;;;22.95;12.65;;;13.30;91.80;;;;;;4972160;28;89796;-75
2023/06/06 05:26:05;;;;;;;22.10;13.23;;;13.40;91.60;;;;;;4961082;28;90318;-75
2023/06/06 05:28:31;;;;;;;21.90;12.65;;;13.40;91.50;;;;;;4971673;28;90179;-74
2023/06/06 05:30:57;;;;;;;24.02;12.90;;;13.50;91.60;;;;;;4972508;28;87620;-74
2023/06/06 05:33:26;;;;;;;25.90;13.55;;;13.60;91.50;;;;;;4964571;28;88986;-75
2023/06/06 05:35:55;;;;;;;21.13;12.90;;;13.60;91.40;;;;;;4974564;28;89785;-75
2023/06/06 05:38:21;;;;;;;23.95;12.10;;;13.60;91.30;;;;;;4956197;28;88592;-75
2023/06/06 05:40:47;;;;;;;24.48;13.50;;;13.70;91.00;;;;;;4954905;28;87748;-75
2023/06/06 05:43:14;;;;;;;21.75;12.80;;;13.70;91.10;;;;;;4975491;28;87990;-74
2023/06/06 05:45:40;;;;;;;25.52;13.73;;;13.80;90.90;;;;;;4960388;28;88257;-80
2023/06/06 05:48:06;;;;;;;20.10;12.60;;;13.80;90.90;;;;;;4964030;28;87837;-80
2023/06/06 05:50:32;;;;;;;22.27;13.52;;;13.90;90.70;;;;;;4969230;28;87668;-80
2023/06/06 05:52:57;;;;;;;25.48;13.75;;;14.00;90.70;;;;;;4969411;28;90751;-80
2023/06/06 05:55:41;;;;;;;19.25;13.02;;;14.00;90.40;;;;;;4976907;28;89270;-80
2023/06/06 05:58:07;;;;;;;;;;;14.10;90.50;;;;;;4977421;28;90450;-80
2023/06/06 06:00:33;;;;;;;22.33;12.70;;;14.20;90.40;;;;;;4961230;28;90546;-80
2023/06/06 06:03:00;;;;;;;20.63;12.70;;;14.40;90.60;;;;;;4957122;28;90171;-80
2023/06/06 06:05:30;;;;;;;19.60;12.27;;;14.50;90.20;;;;;;4963423;28;92427;-80
2023/06/06 06:10:39;;;;;;;21.60;11.95;;;14.70;89.90;;;;;;4998748;28;90704;-80
2023/06/06 06:13:05;;;;;;;23.65;12.77;;;14.80;88.80;;;;;;4998069;28;89126;-79
2023/06/06 06:15:32;;;;;;;22.77;13.07;;;14.90;87.90;;;;;;4992316;28;91497;-78
2023/06/06 06:17:58;;;;;;;19.83;12.55;;;15.00;87.90;;;;;;4995495;28;87639;-78
2023/06/06 06:20:24;;;;;;;24.92;12.93;;;15.10;87.90;;;;;;4997764;28;86965;-79
2023/06/06 06:22:50;;;;;;;21.88;12.40;;;15.20;86.90;;;;;;4996946;28;88653;-78
2023/06/06 06:25:19;;;;;;;21.00;12.68;;;15.20;86.50;;;;;;4997475;28;87920;-78
2023/06/06 06:27:46;;;;;;;21.58;12.98;;;15.30;86.50;;;;;;4978908;28;88519;-78
2023/06/06 06:30:13;;;;;;;22.63;13.10;;;15.40;86.20;;;;;;4996748;28;88169;-78
2023/06/06 06:32:41;;;;;;;20.90;12.07;;;15.50;86.10;;;;;;4996887;28;88916;-78
2023/06/06 06:35:08;;;;;;;19.30;12.07;;;15.60;86.10;;;;;;4996827;28;88135;-78
2023/06/06 06:37:37;;;;;;;20.17;12.77;;;15.70;84.80;;;;;;4978847;28;88532;-77
2023/06/06 06:40:09;;;;;;;19.45;13.43;;;15.80;84.00;;;;;;4996786;28;87843;-78
2023/06/06 06:42:39;;;;;;;18.25;12.07;;;15.90;85.10;;;;;;4996354;28;87746;-78
2023/06/06 06:45:08;;;;;;;20.52;13.27;;;16.00;83.60;;;;;;4996143;28;88625;-77
2023/06/06 06:47:34;;;;;;;21.70;13.45;;;16.10;83.90;;;;;;4996230;28;87605;-77
2023/06/06 06:50:00;;;;;;;22.50;12.82;;;16.10;83.10;;;;;;4996311;28;87918;-77
2023/06/06 06:52:27;;;;;;;22.48;12.25;;;16.20;83.50;;;;;;4995903;28;89369;-77
2023/06/06 06:54:54;;;;;;;18.42;12.50;;;16.30;82.60;;;;;;4976306;28;96307;-77
2023/06/06 06:57:26;;;;;;;20.35;13.35;;;16.30;81.20;;;;;;4992707;28;87954;-77
2023/06/06 06:59:52;;;;;;;19.17;12.90;;;16.40;81.70;;;;;;4966131;28;90627;-77
2023/06/06 07:02:19;;;;;;;19.73;11.90;;;16.50;82.20;;;;;;4974169;28;91448;-78
2023/06/06 07:04:47;;;;;;;19.67;12.50;;;16.60;81.30;;;;;;4991863;28;88326;-77
2023/06/06 07:07:15;;;;;;;22.88;12.13;;;16.70;81.00;;;;;;4990871;28;89063;-78
2023/06/06 07:09:41;;;;;;;22.08;12.32;;;16.80;81.80;;;;;;4994899;28;87133;-79
2023/06/06 07:12:07;;;;;;;27.00;13.57;;;16.90;81.00;;;;;;4995986;28;88940;-77
2023/06/06 07:14:33;;;;;;;19.33;13.75;;;17.10;80.00;;;;;;4995054;28;88133;-76
2023/06/06 07:16:59;;;;;;;20.42;12.50;;;17.30;79.40;;;;;;4991352;28;88696;-78
2023/06/06 07:19:26;;;;;;;19.55;12.25;;;17.40;78.20;;;;;;4994467;28;90120;-76
2023/06/06 07:21:52;;;;;;;19.40;12.02;;;17.60;78.50;;;;;;4992660;28;94581;-75
2023/06/06 07:24:20;;;;;;;20.60;13.02;;;17.70;78.20;;;;;;4993506;28;88475;-74
2023/06/06 07:26:45;;;;;;;23.25;12.52;;;17.90;77.10;;;;;;4993251;28;87596;-76
2023/06/06 07:29:11;;;;;;;22.65;12.43;;;17.90;75.50;;;;;;4976606;28;94184;-77
2023/06/06 07:31:38;;;;;;;19.77;12.38;;;18.00;76.00;;;;;;4995561;28;88025;-77
2023/06/06 07:34:03;;;;;;;16.70;12.38;;;18.10;76.60;;;;;;4978744;28;91721;-77
2023/06/06 07:36:30;;;;;;;24.05;13.80;;;18.20;76.50;;;;;;4995760;28;87696;-77
2023/06/06 07:38:57;;;;;;;18.92;12.52;;;18.30;75.10;;;;;;4995759;28;87824;-77
2023/06/06 07:41:23;;;;;;;21.05;12.15;;;18.40;75.70;;;;;;4976898;28;92148;-77
2023/06/06 07:43:49;;;;;;;17.27;12.02;;;18.30;75.80;;;;;;4986512;28;92165;-77
2023/06/06 07:46:15;;;;;;;17.15;11.88;;;18.50;74.70;;;;;;4995166;28;87598;-77
2023/06/06 07:48:41;;;;;;;18.98;12.05;;;18.60;73.80;;;;;;4995278;28;87513;-77
2023/06/06 07:51:07;;;;;;;19.92;13.07;;;18.70;73.60;;;;;;4977866;28;91656;-77
2023/06/06 07:53:32;;;;;;;18.90;13.52;;;18.80;72.30;;;;;;4995120;28;88463;-77
2023/06/06 07:55:58;;;;;;;20.30;11.95;;;19.00;71.40;;;;;;4995106;28;87521;-75
2023/06/06 07:58:26;;;;;;;22.80;12.52;;;19.20;72.90;;;;;;4969769;28;90549;-74
2023/06/06 08:00:51;;;;;;;20.00;12.25;;;19.30;70.60;;;;;;4992012;28;94650;-75
2023/06/06 08:03:17;;;;;;;22.05;13.20;;;19.40;72.80;;;;;;4993319;28;88625;-74
2023/06/06 08:05:43;;;;;;;18.00;12.77;;;19.60;70.60;;;;;;4993320;28;88385;-74
2023/06/06 08:08:08;;;;;;;21.67;13.48;;;19.70;70.50;;;;;;4974788;28;90309;-73
2023/06/06 08:10:34;;;;;;;17.95;12.10;;;19.70;71.50;;;;;;4992906;28;88355;-74
2023/06/06 08:13:00;;;;;;;17.75;11.57;;;19.70;68.50;;;;;;4995026;28;88685;-73
2023/06/06 08:15:27;;;;;;;24.70;12.80;;;19.80;69.90;;;;;;4978872;28;93653;-78
2023/06/06 08:17:53;;;;;;;19.88;12.15;;;20.00;69.30;;;;;;4988219;28;87746;-80
2023/06/06 08:20:21;;;;;;;18.75;12.00;;;20.10;70.80;;;;;;4977410;28;91930;-79
2023/06/06 08:22:51;;;;;;;22.77;12.55;;;20.30;69.30;;;;;;4995921;28;87471;-79
2023/06/06 08:25:17;;;;;;;19.90;11.48;;;20.50;68.80;;;;;;4994857;28;87575;-79
2023/06/06 08:27:42;;;;;;;22.27;12.48;;;20.60;67.70;;;;;;4994354;28;90522;-81
2023/06/06 08:30:09;;;;;;;22.13;11.00;;;21.00;66.80;;;;;;4994363;28;89565;-80
2023/06/06 08:32:35;;;;;;;18.13;12.10;;;21.20;67.20;;;;;;4995058;28;89912;-81
2023/06/06 08:35:05;;;;;;;17.45;11.07;;;21.40;65.70;;;;;;4993625;28;87739;-81
2023/06/06 08:37:31;;;;;;;18.58;11.85;;;21.50;67.00;;;;;;4993258;28;91232;-81
2023/06/06 08:39:56;;;;;;;17.00;11.45;;;21.80;64.20;;;;;;4978064;28;90620;-81
2023/06/06 08:42:24;;;;;;;17.80;10.55;;;22.00;64.20;;;;;;4993770;28;91808;-81
2023/06/06 08:44:51;;;;;;;18.77;12.00;;;22.20;64.80;;;;;;4970131;28;87741;-81
2023/06/06 08:47:18;;;;;;;18.23;13.13;;;22.40;62.90;;;;;;4976977;28;89928;-81
2023/06/06 08:49:44;;;;;;;19.63;11.70;;;22.30;62.10;;;;;;4993354;28;91648;-80
2023/06/06 08:52:10;;;;;;;19.20;12.48;;;22.40;63.20;;;;;;4996137;28;88982;-81
2023/06/06 08:54:37;;;;;;;16.95;11.18;;;22.40;60.00;;;;;;4994366;28;88516;-81
2023/06/06 08:57:07;;;;;;;21.02;11.52;;;22.50;62.60;;;;;;4992856;28;90147;-81
2023/06/06 08:59:36;;;;;;;19.00;11.52;;;22.80;60.70;;;;;;4986351;28;91565;-80
2023/06/06 09:02:06;;;;;;;17.73;11.52;;;23.10;61.20;;;;;;4995008;28;87683;-80
2023/06/06 09:04:33;;;;;;;19.65;13.15;;;23.40;60.60;;;;;;4994820;28;87820;-80
2023/06/06 09:07:04;;;;;;;18.02;11.93;;;23.50;58.40;;;;;;4995928;28;87863;-80
2023/06/06 09:09:35;;;;;;;18.02;12.05;;;23.70;60.30;;;;;;4950234;28;88847;-80
2023/06/06 09:12:00;;;;;;;17.42;12.05;;;23.50;57.60;;;;;;4966829;28;88833;-80
2023/06/06 09:14:26;;;;;;;20.38;11.07;;;23.50;59.30;;;;;;4963887;28;87526;-80
2023/06/06 09:16:52;;;;;;;22.42;12.13;;;23.70;59.30;;;;;;4963061;28;90270;-80
2023/06/06 09:19:24;;;;;;;17.85;11.98;;;24.00;57.70;;;;;;4964444;28;89591;-80
2023/06/06 09:21:50;;;;;;;16.92;11.30;;;23.90;57.40;;;;;;4965546;28;89049;-81
2023/06/06 09:24:16;;;;;;;16.80;10.93;;;23.80;58.60;;;;;;4964071;28;87739;-80
2023/06/06 09:26:42;;;;;;;20.63;10.82;;;24.10;59.40;;;;;;4964652;28;87955;-80
2023/06/06 09:29:09;;;;;;;14.27;9.73;;;24.60;58.70;;;;;;4946865;28;89317;-80
2023/06/06 09:31:38;;;;;;;15.70;11.52;;;24.80;57.20;;;;;;4964748;28;88268;-78
2023/06/06 09:34:06;;;;;;;17.38;10.85;;;25.00;55.70;;;;;;4966125;28;87748;-78
2023/06/06 09:36:32;;;;;;;14.57;10.70;;;25.20;54.80;;;;;;4965575;28;87218;-78
2023/06/06 09:39:12;;;;;;;18.45;10.82;;;25.50;56.10;;;;;;4964189;28;88143;-78
2023/06/06 09:41:39;;;;;;;15.80;12.20;;;25.30;56.60;;;;;;4965591;28;89069;-77
2023/06/06 09:44:05;;;;;;;16.27;11.35;;;25.20;56.00;;;;;;4963354;28;88653;-77
2023/06/06 09:46:36;;;;;;;18.73;10.57;;;25.40;56.30;;;;;;4964590;28;87720;-77
2023/06/06 09:49:01;;;;;;;13.57;9.00;;;25.50;54.90;;;;;;4963575;28;91119;-77
2023/06/06 09:51:31;;;;;;;15.65;9.25;;;26.00;54.00;;;;;;4965179;28;88374;-77
2023/06/06 09:54:00;;;;;;;13.27;9.15;;;26.30;54.30;;;;;;4968610;28;87750;-79
2023/06/06 09:56:29;;;;;;;14.30;10.52;;;26.80;54.20;;;;;;4967671;28;87810;-79
2023/06/06 09:58:56;;;;;;;13.40;8.02;;;27.00;51.10;;;;;;4968413;28;88029;-77
2023/06/06 10:01:31;;;;;;;17.63;10.10;;;27.10;53.30;;;;;;4966925;28;91210;-77
2023/06/06 10:03:57;;;;;;;16.52;7.65;;;27.40;54.20;;;;;;4958350;28;87585;-77
2023/06/06 10:06:26;;;;;;;12.13;9.40;;;27.70;53.40;;;;;;4976486;28;87771;-77
2023/06/06 10:08:53;;;;;;;12.23;9.43;;;27.90;50.50;;;;;;4976109;28;92357;-78
2023/06/06 10:11:24;;;;;;;13.20;8.05;;;27.90;49.00;;;;;;4978222;28;89355;-78
2023/06/06 10:13:51;;;;;;;12.88;8.27;;;27.80;51.20;;;;;;4977590;28;87831;-78
2023/06/06 10:16:18;;;;;;;10.93;8.13;;;27.90;50.90;;;;;;4978784;28;87950;-79
2023/06/06 10:18:46;;;;;;;12.35;8.82;;;28.00;49.70;;;;;;4977736;28;89793;-77
2023/06/06 10:21:16;;;;;;;10.23;6.88;;;28.30;51.00;;;;;;4977408;28;88238;-76
2023/06/06 10:23:43;;;;;;;13.80;8.10;;;28.50;50.40;;;;;;4975379;28;87904;-77
2023/06/06 10:26:18;;;;;;;12.32;7.88;;;28.70;48.90;;;;;;4959900;28;90578;-78
2023/06/06 10:29:02;;;;;;;11.65;7.45;;;29.00;48.10;;;;;;4975887;28;91396;-78
2023/06/06 10:31:31;;;;;;;19.77;9.02;;;29.20;49.00;;;;;;4976196;28;91887;-78
2023/06/06 10:34:09;;;;;;;12.25;8.85;;;29.00;46.60;;;;;;4977791;28;87989;-78
2023/06/06 10:36:43;;;;;;;10.77;6.95;;;29.10;48.60;;;;;;4958486;28;89399;-78
2023/06/06 10:39:17;;;;;;;12.50;8.00;;;29.40;47.60;;;;;;4959687;28;91305;-78
2023/06/06 10:41:48;;;;;;;16.33;8.50;;;29.60;48.10;;;;;;4977395;28;87622;-78
2023/06/06 10:44:14;;;;;;;13.30;8.00;;;29.80;46.60;;;;;;4975891;28;87711;-78
2023/06/06 10:46:40;;;;;;;14.25;8.10;;;29.90;45.50;;;;;;4976647;28;87653;-78
2023/06/06 10:49:07;;;;;;;12.82;7.05;;;30.00;46.30;;;;;;4978071;28;89139;-78
2023/06/06 10:51:39;;;;;;;12.10;6.47;;;30.40;48.00;;;;;;4977697;28;89442;-78
2023/06/06 10:54:19;;;;;;;9.57;5.47;;;30.60;46.90;;;;;;4975612;28;87792;-78
2023/06/06 10:56:50;;;;;;;12.43;7.88;;;30.90;46.20;;;;;;4959005;28;90971;-78
2023/06/06 10:59:15;;;;;;;10.70;7.45;;;30.70;44.70;;;;;;4966402;28;91894;-78
2023/06/06 11:01:42;;;;;;;12.32;7.68;;;30.50;44.80;;;;;;4975786;28;92364;-78
2023/06/06 11:04:19;;;;;;;12.05;7.40;;;30.10;45.30;;;;;;4958881;28;87542;-78
2023/06/06 11:06:46;;;;;;;10.05;6.50;;;30.10;45.40;;;;;;4977086;28;87623;-78
2023/06/06 11:09:25;;;;;;;10.63;6.13;;;30.40;46.10;;;;;;4958086;28;90844;-78
2023/06/06 11:12:13;;;;;;;10.75;7.05;;;30.50;45.50;;;;;;4976813;28;87507;-78
2023/06/06 11:15:00;;;;;;;8.98;5.40;;;30.70;43.40;;;;;;4976332;28;88029;-79
2023/06/06 11:17:29;;;;;;;9.23;5.90;;;30.90;44.30;;;;;;4976969;28;86942;-78
2023/06/06 11:19:56;;;;;;;12.90;6.57;;;31.20;46.10;;;;;;4959004;28;91518;-78
2023/06/06 11:22:24;;;;;;;10.38;6.50;;;31.40;43.80;;;;;;4966791;28;91387;-78
2023/06/06 11:24:50;;;;;;;9.57;6.50;;;31.40;44.00;;;;;;4976705;28;88915;-78
2023/06/06 11:27:16;;;;;;;10.35;6.45;;;31.60;43.00;;;;;;4976513;28;87554;-78
2023/06/06 11:29:42;;;;;;;9.48;5.18;;;31.70;42.80;;;;;;4976721;28;88763;-78
2023/06/06 11:32:14;;;;;;;7.95;5.50;;;31.60;42.80;;;;;;4975612;28;88269;-78
2023/06/06 11:34:41;;;;;;;6.88;4.13;;;31.50;40.70;;;;;;4975976;28;87802;-78
2023/06/06 11:37:07;;;;;;;7.20;4.97;;;31.60;45.40;;;;;;4977394;28;88069;-78
2023/06/06 11:39:33;;;;;;;10.82;5.38;;;32.00;42.00;;;;;;4958057;28;90916;-78
2023/06/06 11:42:00;;;;;;;10.32;5.40;;;32.20;42.40;;;;;;4976944;28;89500;-78
2023/06/06 11:44:36;;;;;;;6.25;4.28;;;32.50;41.70;;;;;;4976179;28;87766;-79
2023/06/06 11:47:03;;;;;;;6.82;4.00;;;32.60;40.50;;;;;;4958927;28;89537;-79
2023/06/06 11:49:40;;;;;;;5.28;4.10;;;32.80;40.40;;;;;;4974378;28;92483;-78
2023/06/06 11:52:06;;;;;;;6.50;3.25;;;33.00;38.40;;;;;;4977213;28;88005;-78
2023/06/06 11:54:33;;;;;;;12.90;4.65;;;33.50;41.50;;;;;;4958855;28;87528;-78
2023/06/06 11:57:03;;;;;;;9.48;5.15;;;33.80;38.60;;;;;;4976012;28;87463;-79
2023/06/06 11:59:29;;;;;;;6.28;3.80;;;33.50;38.40;;;;;;4975380;28;88450;-78
2023/06/06 12:01:56;;;;;;;5.90;3.45;;;33.40;40.20;;;;;;4953136;28;89876;-78
2023/06/06 12:04:26;;;;;;;5.97;3.70;;;33.40;39.80;;;;;;4995321;28;87962;-78
2023/06/06 12:06:54;;;;;;;6.60;3.63;;;33.60;39.10;;;;;;4970311;28;93603;-78
2023/06/06 12:09:20;;;;;;;8.15;4.65;;;34.00;38.40;;;;;;4977213;28;91492;-79
2023/06/06 12:12:00;;;;;;;5.03;3.72;;;34.20;35.10;;;;;;4993808;28;90366;-78
2023/06/06 12:14:27;;;;;;;6.05;2.85;;;34.30;37.90;;;;;;4986534;28;89032;-78
2023/06/06 12:17:02;;;;;;;4.63;3.05;;;34.70;39.50;;;;;;4993893;28;90811;-78
2023/06/06 12:19:28;;;;;;;6.20;2.90;;;35.00;36.80;;;;;;4995811;28;89453;-78
2023/06/06 12:21:54;;;;;;;7.65;2.70;;;35.20;35.80;;;;;;4996657;28;87999;-79
2023/06/06 12:24:22;;;;;;;8.35;3.00;;;35.20;36.60;;;;;;4996330;28;87500;-79
2023/06/06 12:27:11;;;;;;;5.55;2.58;;;35.00;35.60;;;;;;4977614;28;89016;-79
2023/06/06 12:29:35;;;;;;;8.05;3.15;;;35.20;37.80;;;;;;4993894;28;89946;-78
2023/06/06 12:32:19;;;;;;;4.43;2.10;;;35.50;36.60;;;;;;4977219;28;89753;-78
2023/06/06 12:35:01;;;;;;;5.68;2.00;;;35.70;34.50;;;;;;4995262;28;88110;-82
2023/06/06 12:37:37;;;;;;;3.13;1.80;;;35.90;33.20;;;;;;4975649;28;89887;-74
2023/06/06 12:40:12;;;;;;;4.53;1.88;;;36.00;34.40;;;;;;4994168;28;90143;-75